sensor_id;sensor_type;location;lat;lon;timestamp;P1;durP1;ratioP1;P2;durP2;ratioP2
64609;SDS011;51019;46.090;6.350;2023-05-10T00:01:14;4.13;;;1.15;;
64609;SDS011;51019;46.090;6.350;2023-05-10T00:03:41;3.85;;;1.30;;
64609;SDS011;51019;46.090;6.350;2023-05-10T00:06:09;4.38;;;1.70;;
64609;SDS011;51019;46.090;6.350;2023-05-10T00:08:37;3.75;;;1.10;;
64609;SDS011;51019;46.090;6.350;2023-05-10T00:11:04;3.72;;;1.17;;
64609;SDS011;51019;46.090;6.350;2023-05-10T00:13:32;4.35;;;1.30;;
64609;SDS011;51019;46.090;6.350;2023-05-10T00:16:02;5.43;;;1.20;;
64609;SDS011;51019;46.090;6.350;2023-05-10T00:18:30;4.18;;;1.00;;
64609;SDS011;51019;46.090;6.350;2023-05-10T00:20:58;7.05;;;1.23;;
64609;SDS011;51019;46.090;6.350;2023-05-10T00:23:26;1.52;;;0.80;;
64609;SDS011;51019;46.090;6.350;2023-05-10T00:25:55;4.65;;;1.10;;
64609;SDS011;51019;46.090;6.350;2023-05-10T00:28:23;4.85;;;1.20;;
64609;SDS011;51019;46.090;6.350;2023-05-10T00:30:51;1.35;;;0.90;;
64609;SDS011;51019;46.090;6.350;2023-05-10T00:33:20;6.25;;;1.38;;
64609;SDS011;51019;46.090;6.350;2023-05-10T00:35:49;1.55;;;0.93;;
64609;SDS011;51019;46.090;6.350;2023-05-10T00:38:18;5.00;;;1.20;;
64609;SDS011;51019;46.090;6.350;2023-05-10T00:40:47;2.85;;;1.20;;
64609;SDS011;51019;46.090;6.350;2023-05-10T00:43:16;1.83;;;1.00;;
64609;SDS011;51019;46.090;6.350;2023-05-10T00:45:45;2.03;;;0.80;;
64609;SDS011;51019;46.090;6.350;2023-05-10T00:48:15;1.05;;;0.73;;
64609;SDS011;51019;46.090;6.350;2023-05-10T00:50:44;3.75;;;1.10;;
64609;SDS011;51019;46.090;6.350;2023-05-10T00:53:12;2.92;;;0.80;;
64609;SDS011;51019;46.090;6.350;2023-05-10T00:55:40;2.92;;;0.82;;
64609;SDS011;51019;46.090;6.350;2023-05-10T00:58:10;3.42;;;0.95;;
64609;SDS011;51019;46.090;6.350;2023-05-10T01:00:39;4.55;;;1.40;;
64609;SDS011;51019;46.090;6.350;2023-05-10T01:03:10;3.35;;;1.23;;
64609;SDS011;51019;46.090;6.350;2023-05-10T01:05:38;2.72;;;1.00;;
64609;SDS011;51019;46.090;6.350;2023-05-10T01:08:07;2.88;;;1.10;;
64609;SDS011;51019;46.090;6.350;2023-05-10T01:10:35;3.42;;;1.20;;
64609;SDS011;51019;46.090;6.350;2023-05-10T01:13:03;4.43;;;1.20;;
64609;SDS011;51019;46.090;6.350;2023-05-10T01:15:30;5.15;;;1.20;;
64609;SDS011;51019;46.090;6.350;2023-05-10T01:18:01;2.65;;;1.00;;
64609;SDS011;51019;46.090;6.350;2023-05-10T01:20:32;3.22;;;1.00;;
64609;SDS011;51019;46.090;6.350;2023-05-10T01:23:19;3.35;;;1.25;;
64609;SDS011;51019;46.090;6.350;2023-05-10T01:26:07;5.88;;;1.15;;
64609;SDS011;51019;46.090;6.350;2023-05-10T01:29:11;2.58;;;1.20;;
64609;SDS011;51019;46.090;6.350;2023-05-10T01:32:01;2.53;;;1.10;;
64609;SDS011;51019;46.090;6.350;2023-05-10T01:34:46;4.38;;;1.27;;
64609;SDS011;51019;46.090;6.350;2023-05-10T01:37:22;3.22;;;0.90;;
64609;SDS011;51019;46.090;6.350;2023-05-10T01:39:58;7.20;;;1.30;;
64609;SDS011;51019;46.090;6.350;2023-05-10T01:42:32;2.95;;;1.20;;
64609;SDS011;51019;46.090;6.350;2023-05-10T01:45:13;2.90;;;1.23;;
64609;SDS011;51019;46.090;6.350;2023-05-10T01:47:50;5.13;;;1.40;;
64609;SDS011;51019;46.090;6.350;2023-05-10T01:50:27;6.32;;;1.58;;
64609;SDS011;51019;46.090;6.350;2023-05-10T01:52:57;8.15;;;1.98;;
64609;SDS011;51019;46.090;6.350;2023-05-10T01:55:28;4.82;;;1.40;;
64609;SDS011;51019;46.090;6.350;2023-05-10T01:58:02;6.80;;;1.20;;
64609;SDS011;51019;46.090;6.350;2023-05-10T02:00:33;7.18;;;1.50;;
64609;SDS011;51019;46.090;6.350;2023-05-10T02:03:04;2.28;;;1.00;;
64609;SDS011;51019;46.090;6.350;2023-05-10T02:05:34;4.00;;;2.00;;
64609;SDS011;51019;46.090;6.350;2023-05-10T02:08:05;3.97;;;1.30;;
64609;SDS011;51019;46.090;6.350;2023-05-10T02:10:33;2.08;;;1.10;;
64609;SDS011;51019;46.090;6.350;2023-05-10T02:13:02;4.68;;;2.33;;
64609;SDS011;51019;46.090;6.350;2023-05-10T02:15:32;6.10;;;1.50;;
64609;SDS011;51019;46.090;6.350;2023-05-10T02:18:02;6.13;;;1.27;;
64609;SDS011;51019;46.090;6.350;2023-05-10T02:20:32;5.32;;;1.40;;
64609;SDS011;51019;46.090;6.350;2023-05-10T02:23:02;4.63;;;1.10;;
64609;SDS011;51019;46.090;6.350;2023-05-10T02:25:30;5.75;;;1.67;;
64609;SDS011;51019;46.090;6.350;2023-05-10T02:28:00;5.47;;;1.35;;
64609;SDS011;51019;46.090;6.350;2023-05-10T02:30:30;6.35;;;1.30;;
64609;SDS011;51019;46.090;6.350;2023-05-10T02:32:59;6.30;;;1.30;;
64609;SDS011;51019;46.090;6.350;2023-05-10T02:35:28;8.48;;;1.55;;
64609;SDS011;51019;46.090;6.350;2023-05-10T02:37:58;5.65;;;1.40;;
64609;SDS011;51019;46.090;6.350;2023-05-10T02:40:27;3.38;;;1.30;;
64609;SDS011;51019;46.090;6.350;2023-05-10T02:42:56;5.82;;;1.50;;
64609;SDS011;51019;46.090;6.350;2023-05-10T02:45:27;7.32;;;1.50;;
64609;SDS011;51019;46.090;6.350;2023-05-10T02:47:58;7.10;;;1.60;;
64609;SDS011;51019;46.090;6.350;2023-05-10T02:50:27;9.05;;;1.48;;
64609;SDS011;51019;46.090;6.350;2023-05-10T02:52:59;3.25;;;1.25;;
64609;SDS011;51019;46.090;6.350;2023-05-10T02:55:32;4.40;;;1.17;;
64609;SDS011;51019;46.090;6.350;2023-05-10T02:58:03;2.78;;;1.13;;
64609;SDS011;51019;46.090;6.350;2023-05-10T03:00:30;4.22;;;1.27;;
64609;SDS011;51019;46.090;6.350;2023-05-10T03:03:00;3.00;;;1.15;;
64609;SDS011;51019;46.090;6.350;2023-05-10T03:05:27;6.93;;;1.35;;
64609;SDS011;51019;46.090;6.350;2023-05-10T03:07:56;4.10;;;1.17;;
64609;SDS011;51019;46.090;6.350;2023-05-10T03:10:26;6.13;;;1.35;;
64609;SDS011;51019;46.090;6.350;2023-05-10T03:13:02;6.13;;;1.45;;
64609;SDS011;51019;46.090;6.350;2023-05-10T03:15:41;2.65;;;1.25;;
64609;SDS011;51019;46.090;6.350;2023-05-10T03:18:16;4.60;;;1.20;;
64609;SDS011;51019;46.090;6.350;2023-05-10T03:20:48;5.45;;;1.50;;
64609;SDS011;51019;46.090;6.350;2023-05-10T03:23:28;4.55;;;1.20;;
64609;SDS011;51019;46.090;6.350;2023-05-10T03:26:02;6.75;;;1.40;;
64609;SDS011;51019;46.090;6.350;2023-05-10T03:28:31;7.75;;;1.60;;
64609;SDS011;51019;46.090;6.350;2023-05-10T03:31:00;5.07;;;1.30;;
64609;SDS011;51019;46.090;6.350;2023-05-10T03:33:31;8.35;;;1.52;;
64609;SDS011;51019;46.090;6.350;2023-05-10T03:35:58;5.75;;;1.23;;
64609;SDS011;51019;46.090;6.350;2023-05-10T03:38:29;8.80;;;1.50;;
64609;SDS011;51019;46.090;6.350;2023-05-10T03:40:57;3.90;;;1.30;;
64609;SDS011;51019;46.090;6.350;2023-05-10T03:43:24;5.07;;;1.50;;
64609;SDS011;51019;46.090;6.350;2023-05-10T03:45:51;6.22;;;1.55;;
64609;SDS011;51019;46.090;6.350;2023-05-10T03:48:19;5.10;;;1.30;;
64609;SDS011;51019;46.090;6.350;2023-05-10T03:50:47;5.15;;;1.40;;
64609;SDS011;51019;46.090;6.350;2023-05-10T03:53:14;4.50;;;1.30;;
64609;SDS011;51019;46.090;6.350;2023-05-10T03:55:45;5.85;;;1.40;;
64609;SDS011;51019;46.090;6.350;2023-05-10T03:58:12;5.57;;;1.50;;
64609;SDS011;51019;46.090;6.350;2023-05-10T04:00:40;4.03;;;1.35;;
64609;SDS011;51019;46.090;6.350;2023-05-10T04:03:10;4.15;;;1.35;;
64609;SDS011;51019;46.090;6.350;2023-05-10T04:05:38;4.75;;;1.02;;
64609;SDS011;51019;46.090;6.350;2023-05-10T04:08:05;4.25;;;1.30;;
64609;SDS011;51019;46.090;6.350;2023-05-10T04:10:33;4.03;;;1.33;;
64609;SDS011;51019;46.090;6.350;2023-05-10T04:13:05;4.50;;;1.35;;
64609;SDS011;51019;46.090;6.350;2023-05-10T04:15:32;2.75;;;1.10;;
64609;SDS011;51019;46.090;6.350;2023-05-10T04:18:00;2.97;;;1.00;;
64609;SDS011;51019;46.090;6.350;2023-05-10T04:20:29;3.50;;;1.13;;
64609;SDS011;51019;46.090;6.350;2023-05-10T04:22:56;5.90;;;1.30;;
64609;SDS011;51019;46.090;6.350;2023-05-10T04:25:28;3.83;;;1.17;;
64609;SDS011;51019;46.090;6.350;2023-05-10T04:27:55;6.47;;;1.40;;
64609;SDS011;51019;46.090;6.350;2023-05-10T04:30:25;4.32;;;1.58;;
64609;SDS011;51019;46.090;6.350;2023-05-10T04:32:54;3.58;;;1.13;;
64609;SDS011;51019;46.090;6.350;2023-05-10T04:35:23;3.75;;;1.20;;
64609;SDS011;51019;46.090;6.350;2023-05-10T04:37:50;4.28;;;1.20;;
64609;SDS011;51019;46.090;6.350;2023-05-10T04:40:17;5.00;;;1.20;;
64609;SDS011;51019;46.090;6.350;2023-05-10T04:42:45;5.32;;;1.40;;
64609;SDS011;51019;46.090;6.350;2023-05-10T04:45:15;5.07;;;1.50;;
64609;SDS011;51019;46.090;6.350;2023-05-10T04:47:44;6.22;;;1.52;;
64609;SDS011;51019;46.090;6.350;2023-05-10T04:50:12;5.97;;;1.77;;
64609;SDS011;51019;46.090;6.350;2023-05-10T04:52:40;4.97;;;1.58;;
64609;SDS011;51019;46.090;6.350;2023-05-10T04:55:08;4.80;;;1.50;;
64609;SDS011;51019;46.090;6.350;2023-05-10T04:57:37;9.13;;;1.50;;
64609;SDS011;51019;46.090;6.350;2023-05-10T05:00:04;8.57;;;1.75;;
64609;SDS011;51019;46.090;6.350;2023-05-10T05:02:33;6.10;;;1.45;;
64609;SDS011;51019;46.090;6.350;2023-05-10T05:05:04;4.68;;;1.50;;
64609;SDS011;51019;46.090;6.350;2023-05-10T05:07:32;5.38;;;1.50;;
64609;SDS011;51019;46.090;6.350;2023-05-10T05:09:59;5.50;;;1.58;;
64609;SDS011;51019;46.090;6.350;2023-05-10T05:12:27;5.82;;;1.58;;
64609;SDS011;51019;46.090;6.350;2023-05-10T05:14:54;4.60;;;1.40;;
64609;SDS011;51019;46.090;6.350;2023-05-10T05:17:21;7.05;;;1.85;;
64609;SDS011;51019;46.090;6.350;2023-05-10T05:19:49;6.43;;;1.45;;
64609;SDS011;51019;46.090;6.350;2023-05-10T05:22:20;6.13;;;1.40;;
64609;SDS011;51019;46.090;6.350;2023-05-10T05:24:52;4.88;;;1.50;;
64609;SDS011;51019;46.090;6.350;2023-05-10T05:27:19;5.97;;;1.50;;
64609;SDS011;51019;46.090;6.350;2023-05-10T05:29:49;8.23;;;1.83;;
64609;SDS011;51019;46.090;6.350;2023-05-10T05:32:16;6.95;;;1.85;;
64609;SDS011;51019;46.090;6.350;2023-05-10T05:34:44;8.13;;;1.50;;
64609;SDS011;51019;46.090;6.350;2023-05-10T05:37:12;7.50;;;1.65;;
64609;SDS011;51019;46.090;6.350;2023-05-10T05:39:46;8.57;;;2.10;;
64609;SDS011;51019;46.090;6.350;2023-05-10T05:42:16;5.53;;;1.60;;
64609;SDS011;51019;46.090;6.350;2023-05-10T05:44:44;5.88;;;1.60;;
64609;SDS011;51019;46.090;6.350;2023-05-10T05:47:12;7.57;;;1.77;;
64609;SDS011;51019;46.090;6.350;2023-05-10T05:49:50;8.93;;;1.92;;
64609;SDS011;51019;46.090;6.350;2023-05-10T05:52:17;9.48;;;2.35;;
64609;SDS011;51019;46.090;6.350;2023-05-10T05:54:48;12.82;;;2.45;;
64609;SDS011;51019;46.090;6.350;2023-05-10T05:57:15;8.23;;;2.10;;
64609;SDS011;51019;46.090;6.350;2023-05-10T05:59:48;11.95;;;2.40;;
64609;SDS011;51019;46.090;6.350;2023-05-10T06:02:15;9.43;;;1.95;;
64609;SDS011;51019;46.090;6.350;2023-05-10T06:04:46;8.50;;;2.05;;
64609;SDS011;51019;46.090;6.350;2023-05-10T06:07:14;5.57;;;1.83;;
64609;SDS011;51019;46.090;6.350;2023-05-10T06:09:44;12.07;;;1.95;;
64609;SDS011;51019;46.090;6.350;2023-05-10T06:12:15;7.78;;;1.98;;
64609;SDS011;51019;46.090;6.350;2023-05-10T06:14:43;7.13;;;1.80;;
64609;SDS011;51019;46.090;6.350;2023-05-10T06:17:11;9.52;;;1.70;;
64609;SDS011;51019;46.090;6.350;2023-05-10T06:19:39;9.95;;;1.70;;
64609;SDS011;51019;46.090;6.350;2023-05-10T06:22:06;15.95;;;2.78;;
64609;SDS011;51019;46.090;6.350;2023-05-10T06:24:34;7.88;;;1.77;;
64609;SDS011;51019;46.090;6.350;2023-05-10T06:27:02;7.55;;;1.77;;
64609;SDS011;51019;46.090;6.350;2023-05-10T06:29:31;9.63;;;1.80;;
64609;SDS011;51019;46.090;6.350;2023-05-10T06:31:59;8.15;;;1.90;;
64609;SDS011;51019;46.090;6.350;2023-05-10T06:34:26;7.88;;;1.95;;
64609;SDS011;51019;46.090;6.350;2023-05-10T06:36:54;9.45;;;2.00;;
64609;SDS011;51019;46.090;6.350;2023-05-10T06:39:21;9.75;;;2.05;;
64609;SDS011;51019;46.090;6.350;2023-05-10T06:41:48;9.93;;;2.05;;
64609;SDS011;51019;46.090;6.350;2023-05-10T06:44:16;8.27;;;1.88;;
64609;SDS011;51019;46.090;6.350;2023-05-10T06:46:46;9.30;;;1.90;;
64609;SDS011;51019;46.090;6.350;2023-05-10T06:49:15;7.95;;;1.75;;
64609;SDS011;51019;46.090;6.350;2023-05-10T06:51:42;9.52;;;2.85;;
64609;SDS011;51019;46.090;6.350;2023-05-10T06:54:10;7.25;;;1.60;;
64609;SDS011;51019;46.090;6.350;2023-05-10T06:56:38;9.32;;;1.90;;
64609;SDS011;51019;46.090;6.350;2023-05-10T06:59:06;10.55;;;1.90;;
64609;SDS011;51019;46.090;6.350;2023-05-10T07:01:33;7.93;;;2.05;;
64609;SDS011;51019;46.090;6.350;2023-05-10T07:04:05;11.60;;;2.00;;
64609;SDS011;51019;46.090;6.350;2023-05-10T07:06:32;11.52;;;3.00;;
64609;SDS011;51019;46.090;6.350;2023-05-10T07:09:01;9.18;;;2.10;;
64609;SDS011;51019;46.090;6.350;2023-05-10T07:11:28;9.50;;;1.95;;
64609;SDS011;51019;46.090;6.350;2023-05-10T07:13:55;11.00;;;2.03;;
64609;SDS011;51019;46.090;6.350;2023-05-10T07:16:24;8.55;;;1.95;;
64609;SDS011;51019;46.090;6.350;2023-05-10T07:18:52;9.23;;;2.10;;
64609;SDS011;51019;46.090;6.350;2023-05-10T07:21:23;9.82;;;2.10;;
64609;SDS011;51019;46.090;6.350;2023-05-10T07:23:55;10.13;;;2.08;;
64609;SDS011;51019;46.090;6.350;2023-05-10T07:26:23;11.82;;;1.80;;
64609;SDS011;51019;46.090;6.350;2023-05-10T07:28:52;9.98;;;1.90;;
64609;SDS011;51019;46.090;6.350;2023-05-10T07:31:19;7.95;;;1.90;;
64609;SDS011;51019;46.090;6.350;2023-05-10T07:33:49;7.30;;;1.90;;
64609;SDS011;51019;46.090;6.350;2023-05-10T07:36:17;9.80;;;2.10;;
64609;SDS011;51019;46.090;6.350;2023-05-10T07:38:46;11.73;;;2.40;;
64609;SDS011;51019;46.090;6.350;2023-05-10T07:41:14;7.90;;;1.73;;
64609;SDS011;51019;46.090;6.350;2023-05-10T07:43:43;12.00;;;2.08;;
64609;SDS011;51019;46.090;6.350;2023-05-10T07:46:11;9.75;;;1.90;;
64609;SDS011;51019;46.090;6.350;2023-05-10T07:48:39;10.48;;;2.17;;
64609;SDS011;51019;46.090;6.350;2023-05-10T07:51:08;9.43;;;2.10;;
64609;SDS011;51019;46.090;6.350;2023-05-10T07:53:35;8.10;;;1.95;;
64609;SDS011;51019;46.090;6.350;2023-05-10T07:58:54;9.57;;;2.05;;
64609;SDS011;51019;46.090;6.350;2023-05-10T08:01:29;8.38;;;2.10;;
64609;SDS011;51019;46.090;6.350;2023-05-10T08:04:00;10.00;;;2.75;;
64609;SDS011;51019;46.090;6.350;2023-05-10T08:06:30;8.38;;;1.95;;
64609;SDS011;51019;46.090;6.350;2023-05-10T08:08:59;11.38;;;2.45;;
64609;SDS011;51019;46.090;6.350;2023-05-10T08:11:29;10.63;;;2.17;;
64609;SDS011;51019;46.090;6.350;2023-05-10T08:13:57;6.70;;;1.90;;
64609;SDS011;51019;46.090;6.350;2023-05-10T08:16:33;8.98;;;2.03;;
64609;SDS011;51019;46.090;6.350;2023-05-10T08:19:05;11.68;;;1.90;;
64609;SDS011;51019;46.090;6.350;2023-05-10T08:21:32;9.80;;;2.13;;
64609;SDS011;51019;46.090;6.350;2023-05-10T08:24:00;7.97;;;2.20;;
64609;SDS011;51019;46.090;6.350;2023-05-10T08:26:30;8.48;;;2.25;;
64609;SDS011;51019;46.090;6.350;2023-05-10T08:31:28;7.13;;;1.60;;
64609;SDS011;51019;46.090;6.350;2023-05-10T08:33:57;10.05;;;2.10;;
64609;SDS011;51019;46.090;6.350;2023-05-10T08:36:26;11.77;;;1.80;;
64609;SDS011;51019;46.090;6.350;2023-05-10T08:38:54;7.70;;;1.85;;
64609;SDS011;51019;46.090;6.350;2023-05-10T08:41:21;9.48;;;2.30;;
64609;SDS011;51019;46.090;6.350;2023-05-10T08:43:52;7.57;;;1.60;;
64609;SDS011;51019;46.090;6.350;2023-05-10T08:46:21;9.35;;;2.00;;
64609;SDS011;51019;46.090;6.350;2023-05-10T08:48:50;11.18;;;2.95;;
64609;SDS011;51019;46.090;6.350;2023-05-10T08:51:18;9.07;;;1.83;;
64609;SDS011;51019;46.090;6.350;2023-05-10T08:53:46;9.95;;;2.00;;
64609;SDS011;51019;46.090;6.350;2023-05-10T08:56:14;12.10;;;2.20;;
64609;SDS011;51019;46.090;6.350;2023-05-10T08:58:44;10.38;;;1.92;;
64609;SDS011;51019;46.090;6.350;2023-05-10T09:01:18;8.48;;;2.60;;
64609;SDS011;51019;46.090;6.350;2023-05-10T09:03:46;10.20;;;2.10;;
64609;SDS011;51019;46.090;6.350;2023-05-10T09:06:15;12.60;;;1.85;;
64609;SDS011;51019;46.090;6.350;2023-05-10T09:08:43;8.40;;;2.05;;
64609;SDS011;51019;46.090;6.350;2023-05-10T09:11:11;11.35;;;2.05;;
64609;SDS011;51019;46.090;6.350;2023-05-10T09:13:41;7.75;;;1.80;;
64609;SDS011;51019;46.090;6.350;2023-05-10T09:16:10;6.82;;;1.67;;
64609;SDS011;51019;46.090;6.350;2023-05-10T09:18:42;9.73;;;1.73;;
64609;SDS011;51019;46.090;6.350;2023-05-10T09:21:18;8.02;;;1.95;;
64609;SDS011;51019;46.090;6.350;2023-05-10T09:23:47;7.03;;;1.77;;
64609;SDS011;51019;46.090;6.350;2023-05-10T09:26:15;10.32;;;1.88;;
64609;SDS011;51019;46.090;6.350;2023-05-10T09:28:53;10.35;;;1.95;;
64609;SDS011;51019;46.090;6.350;2023-05-10T09:31:21;10.40;;;2.25;;
64609;SDS011;51019;46.090;6.350;2023-05-10T09:33:53;7.47;;;1.80;;
64609;SDS011;51019;46.090;6.350;2023-05-10T09:36:22;11.93;;;2.00;;
64609;SDS011;51019;46.090;6.350;2023-05-10T09:38:51;9.52;;;2.00;;
64609;SDS011;51019;46.090;6.350;2023-05-10T09:41:22;8.48;;;2.00;;
64609;SDS011;51019;46.090;6.350;2023-05-10T09:43:50;16.83;;;1.85;;
64609;SDS011;51019;46.090;6.350;2023-05-10T09:46:22;9.90;;;1.67;;
64609;SDS011;51019;46.090;6.350;2023-05-10T09:48:58;8.35;;;1.50;;
64609;SDS011;51019;46.090;6.350;2023-05-10T09:51:26;9.38;;;2.08;;
64609;SDS011;51019;46.090;6.350;2023-05-10T09:54:08;7.63;;;1.73;;
64609;SDS011;51019;46.090;6.350;2023-05-10T09:56:36;6.35;;;1.88;;
64609;SDS011;51019;46.090;6.350;2023-05-10T09:59:05;14.00;;;2.03;;
64609;SDS011;51019;46.090;6.350;2023-05-10T10:01:34;9.60;;;2.10;;
64609;SDS011;51019;46.090;6.350;2023-05-10T10:04:05;9.55;;;1.73;;
64609;SDS011;51019;46.090;6.350;2023-05-10T10:06:37;7.68;;;2.15;;
64609;SDS011;51019;46.090;6.350;2023-05-10T10:09:05;7.32;;;1.73;;
64609;SDS011;51019;46.090;6.350;2023-05-10T10:11:33;9.20;;;1.90;;
64609;SDS011;51019;46.090;6.350;2023-05-10T10:14:03;9.98;;;1.80;;
64609;SDS011;51019;46.090;6.350;2023-05-10T10:16:31;9.20;;;1.70;;
64609;SDS011;51019;46.090;6.350;2023-05-10T10:19:00;7.15;;;1.58;;
64609;SDS011;51019;46.090;6.350;2023-05-10T10:21:31;5.70;;;1.52;;
64609;SDS011;51019;46.090;6.350;2023-05-10T10:23:59;7.63;;;1.50;;
64609;SDS011;51019;46.090;6.350;2023-05-10T10:26:28;8.07;;;1.50;;
64609;SDS011;51019;46.090;6.350;2023-05-10T10:29:03;9.60;;;1.63;;
64609;SDS011;51019;46.090;6.350;2023-05-10T10:31:40;5.47;;;1.50;;
64609;SDS011;51019;46.090;6.350;2023-05-10T10:34:22;6.50;;;1.52;;
64609;SDS011;51019;46.090;6.350;2023-05-10T10:36:55;7.80;;;1.55;;
64609;SDS011;51019;46.090;6.350;2023-05-10T10:39:24;8.27;;;1.70;;
64609;SDS011;51019;46.090;6.350;2023-05-10T10:41:52;6.70;;;1.50;;
64609;SDS011;51019;46.090;6.350;2023-05-10T10:44:25;6.90;;;1.50;;
64609;SDS011;51019;46.090;6.350;2023-05-10T10:46:58;7.55;;;1.80;;
64609;SDS011;51019;46.090;6.350;2023-05-10T10:49:30;7.57;;;1.70;;
64609;SDS011;51019;46.090;6.350;2023-05-10T10:54:55;12.23;;;1.88;;
64609;SDS011;51019;46.090;6.350;2023-05-10T10:57:26;6.45;;;1.60;;
64609;SDS011;51019;46.090;6.350;2023-05-10T11:02:49;8.25;;;1.70;;
64609;SDS011;51019;46.090;6.350;2023-05-10T11:08:15;7.05;;;1.65;;
64609;SDS011;51019;46.090;6.350;2023-05-10T11:10:51;8.80;;;1.80;;
64609;SDS011;51019;46.090;6.350;2023-05-10T11:13:27;9.68;;;1.80;;
64609;SDS011;51019;46.090;6.350;2023-05-10T11:15:56;7.00;;;1.60;;
64609;SDS011;51019;46.090;6.350;2023-05-10T11:18:24;10.57;;;1.85;;
64609;SDS011;51019;46.090;6.350;2023-05-10T11:20:55;7.15;;;1.60;;
64609;SDS011;51019;46.090;6.350;2023-05-10T11:23:32;8.77;;;1.50;;
64609;SDS011;51019;46.090;6.350;2023-05-10T11:26:14;8.05;;;1.40;;
64609;SDS011;51019;46.090;6.350;2023-05-10T11:28:42;7.55;;;1.60;;
64609;SDS011;51019;46.090;6.350;2023-05-10T11:31:10;6.65;;;1.67;;
64609;SDS011;51019;46.090;6.350;2023-05-10T11:33:42;6.57;;;1.83;;
64609;SDS011;51019;46.090;6.350;2023-05-10T11:36:11;9.80;;;1.40;;
64609;SDS011;51019;46.090;6.350;2023-05-10T11:38:40;6.93;;;2.05;;
64609;SDS011;51019;46.090;6.350;2023-05-10T11:41:08;6.18;;;1.55;;
64609;SDS011;51019;46.090;6.350;2023-05-10T11:43:39;7.15;;;1.60;;
64609;SDS011;51019;46.090;6.350;2023-05-10T11:46:07;5.47;;;1.30;;
64609;SDS011;51019;46.090;6.350;2023-05-10T11:48:36;8.68;;;2.40;;
64609;SDS011;51019;46.090;6.350;2023-05-10T11:51:06;5.90;;;1.38;;
64609;SDS011;51019;46.090;6.350;2023-05-10T11:53:34;9.77;;;1.77;;
64609;SDS011;51019;46.090;6.350;2023-05-10T11:56:07;6.18;;;1.60;;
64609;SDS011;51019;46.090;6.350;2023-05-10T11:58:36;8.68;;;1.60;;
64609;SDS011;51019;46.090;6.350;2023-05-10T12:01:05;6.63;;;1.50;;
64609;SDS011;51019;46.090;6.350;2023-05-10T12:03:35;5.32;;;1.42;;
64609;SDS011;51019;46.090;6.350;2023-05-10T12:06:06;8.40;;;1.70;;
64609;SDS011;51019;46.090;6.350;2023-05-10T12:08:35;5.15;;;1.52;;
64609;SDS011;51019;46.090;6.350;2023-05-10T12:11:07;3.20;;;1.20;;
64609;SDS011;51019;46.090;6.350;2023-05-10T12:13:37;7.07;;;1.50;;
64609;SDS011;51019;46.090;6.350;2023-05-10T12:16:12;8.25;;;1.60;;
64609;SDS011;51019;46.090;6.350;2023-05-10T12:18:40;9.55;;;2.00;;
64609;SDS011;51019;46.090;6.350;2023-05-10T12:21:09;5.97;;;1.48;;
64609;SDS011;51019;46.090;6.350;2023-05-10T12:23:38;6.65;;;1.60;;
64609;SDS011;51019;46.090;6.350;2023-05-10T12:26:08;4.82;;;1.30;;
64609;SDS011;51019;46.090;6.350;2023-05-10T12:28:36;5.03;;;1.27;;
64609;SDS011;51019;46.090;6.350;2023-05-10T12:31:06;7.47;;;1.67;;
64609;SDS011;51019;46.090;6.350;2023-05-10T12:33:37;6.30;;;1.42;;
64609;SDS011;51019;46.090;6.350;2023-05-10T12:36:06;10.07;;;1.83;;
64609;SDS011;51019;46.090;6.350;2023-05-10T12:38:35;6.90;;;1.40;;
64609;SDS011;51019;46.090;6.350;2023-05-10T12:41:05;6.38;;;1.60;;
64609;SDS011;51019;46.090;6.350;2023-05-10T12:43:35;6.65;;;1.38;;
64609;SDS011;51019;46.090;6.350;2023-05-10T12:46:07;4.53;;;1.30;;
64609;SDS011;51019;46.090;6.350;2023-05-10T12:48:35;7.32;;;1.50;;
64609;SDS011;51019;46.090;6.350;2023-05-10T12:51:07;5.13;;;1.40;;
64609;SDS011;51019;46.090;6.350;2023-05-10T12:53:37;4.80;;;1.40;;
64609;SDS011;51019;46.090;6.350;2023-05-10T12:56:04;8.57;;;1.48;;
64609;SDS011;51019;46.090;6.350;2023-05-10T12:58:33;6.63;;;1.50;;
64609;SDS011;51019;46.090;6.350;2023-05-10T13:01:03;7.03;;;1.50;;
64609;SDS011;51019;46.090;6.350;2023-05-10T13:03:32;4.20;;;1.20;;
64609;SDS011;51019;46.090;6.350;2023-05-10T13:05:59;4.85;;;1.30;;
64609;SDS011;51019;46.090;6.350;2023-05-10T13:08:26;4.75;;;1.33;;
64609;SDS011;51019;46.090;6.350;2023-05-10T13:10:58;7.35;;;1.55;;
64609;SDS011;51019;46.090;6.350;2023-05-10T13:13:25;3.83;;;1.20;;
64609;SDS011;51019;46.090;6.350;2023-05-10T13:15:54;6.43;;;1.35;;
64609;SDS011;51019;46.090;6.350;2023-05-10T13:18:22;8.15;;;1.52;;
64609;SDS011;51019;46.090;6.350;2023-05-10T13:20:51;6.28;;;1.58;;
64609;SDS011;51019;46.090;6.350;2023-05-10T13:23:18;5.95;;;1.35;;
64609;SDS011;51019;46.090;6.350;2023-05-10T13:25:45;4.22;;;1.30;;
64609;SDS011;51019;46.090;6.350;2023-05-10T13:28:13;5.45;;;1.33;;
64609;SDS011;51019;46.090;6.350;2023-05-10T13:30:41;3.65;;;1.52;;
64609;SDS011;51019;46.090;6.350;2023-05-10T13:33:10;6.40;;;1.50;;
64609;SDS011;51019;46.090;6.350;2023-05-10T13:35:38;4.05;;;1.15;;
64609;SDS011;51019;46.090;6.350;2023-05-10T13:38:06;4.47;;;1.30;;
64609;SDS011;51019;46.090;6.350;2023-05-10T13:40:33;3.85;;;1.33;;
64609;SDS011;51019;46.090;6.350;2023-05-10T13:43:01;4.47;;;1.30;;
64609;SDS011;51019;46.090;6.350;2023-05-10T13:45:28;5.18;;;1.15;;
64609;SDS011;51019;46.090;6.350;2023-05-10T13:47:55;7.18;;;1.40;;
64609;SDS011;51019;46.090;6.350;2023-05-10T13:50:24;6.32;;;1.35;;
64609;SDS011;51019;46.090;6.350;2023-05-10T13:52:52;6.63;;;1.38;;
64609;SDS011;51019;46.090;6.350;2023-05-10T13:55:21;3.90;;;1.10;;
64609;SDS011;51019;46.090;6.350;2023-05-10T13:57:48;5.13;;;1.17;;
64609;SDS011;51019;46.090;6.350;2023-05-10T14:00:16;5.15;;;1.30;;
64609;SDS011;51019;46.090;6.350;2023-05-10T14:02:43;5.35;;;1.20;;
64609;SDS011;51019;46.090;6.350;2023-05-10T14:05:11;5.32;;;1.30;;
64609;SDS011;51019;46.090;6.350;2023-05-10T14:07:40;4.20;;;1.23;;
64609;SDS011;51019;46.090;6.350;2023-05-10T14:10:07;6.10;;;1.52;;
64609;SDS011;51019;46.090;6.350;2023-05-10T14:12:35;5.22;;;1.48;;
64609;SDS011;51019;46.090;6.350;2023-05-10T14:15:04;2.70;;;1.10;;
64609;SDS011;51019;46.090;6.350;2023-05-10T14:17:32;4.70;;;1.17;;
64609;SDS011;51019;46.090;6.350;2023-05-10T14:20:00;5.43;;;1.40;;
64609;SDS011;51019;46.090;6.350;2023-05-10T14:22:27;3.33;;;1.20;;
64609;SDS011;51019;46.090;6.350;2023-05-10T14:24:58;5.15;;;1.33;;
64609;SDS011;51019;46.090;6.350;2023-05-10T14:27:26;4.55;;;1.20;;
64609;SDS011;51019;46.090;6.350;2023-05-10T14:29:56;3.35;;;1.05;;
64609;SDS011;51019;46.090;6.350;2023-05-10T14:32:25;3.97;;;1.40;;
64609;SDS011;51019;46.090;6.350;2023-05-10T14:34:54;5.43;;;1.23;;
64609;SDS011;51019;46.090;6.350;2023-05-10T14:37:21;7.82;;;1.70;;
64609;SDS011;51019;46.090;6.350;2023-05-10T14:39:48;9.25;;;1.50;;
64609;SDS011;51019;46.090;6.350;2023-05-10T14:42:17;5.47;;;1.20;;
64609;SDS011;51019;46.090;6.350;2023-05-10T14:44:44;3.65;;;1.20;;
64609;SDS011;51019;46.090;6.350;2023-05-10T14:47:12;7.47;;;1.50;;
64609;SDS011;51019;46.090;6.350;2023-05-10T14:49:39;3.92;;;1.17;;
64609;SDS011;51019;46.090;6.350;2023-05-10T14:52:07;5.35;;;1.60;;
64609;SDS011;51019;46.090;6.350;2023-05-10T14:54:35;7.05;;;1.48;;
64609;SDS011;51019;46.090;6.350;2023-05-10T14:57:03;8.88;;;1.40;;
64609;SDS011;51019;46.090;6.350;2023-05-10T14:59:35;3.85;;;1.35;;
64609;SDS011;51019;46.090;6.350;2023-05-10T15:02:04;4.22;;;1.20;;
64609;SDS011;51019;46.090;6.350;2023-05-10T15:04:33;6.07;;;1.40;;
64609;SDS011;51019;46.090;6.350;2023-05-10T15:07:01;5.57;;;1.20;;
64609;SDS011;51019;46.090;6.350;2023-05-10T15:09:30;9.45;;;1.75;;
64609;SDS011;51019;46.090;6.350;2023-05-10T15:11:58;5.00;;;1.40;;
64609;SDS011;51019;46.090;6.350;2023-05-10T15:14:25;6.50;;;1.30;;